sensor_id;sensor_type;location;lat;lon;timestamp;P1;durP1;ratioP1;P2;durP2;ratioP2
4867;SDS011;2448;48.086;10.862;2022-12-20T00:01:21;2.87;;;2.60;;
4867;SDS011;2448;48.086;10.862;2022-12-20T00:03:50;2.63;;;2.43;;
4867;SDS011;2448;48.086;10.862;2022-12-20T00:06:16;3.70;;;2.60;;
4867;SDS011;2448;48.086;10.862;2022-12-20T00:08:41;2.23;;;2.13;;
4867;SDS011;2448;48.086;10.862;2022-12-20T00:11:07;2.37;;;2.17;;
4867;SDS011;2448;48.086;10.862;2022-12-20T00:13:33;2.83;;;2.63;;
4867;SDS011;2448;48.086;10.862;2022-12-20T00:16:06;5.60;;;2.07;;
4867;SDS011;2448;48.086;10.862;2022-12-20T00:18:32;1.47;;;1.47;;
4867;SDS011;2448;48.086;10.862;2022-12-20T00:20:58;2.17;;;1.97;;
4867;SDS011;2448;48.086;10.862;2022-12-20T00:23:23;3.20;;;2.13;;
4867;SDS011;2448;48.086;10.862;2022-12-20T00:25:49;1.23;;;1.23;;
4867;SDS011;2448;48.086;10.862;2022-12-20T00:28:14;4.23;;;1.87;;
4867;SDS011;2448;48.086;10.862;2022-12-20T00:30:39;3.93;;;2.20;;
4867;SDS011;2448;48.086;10.862;2022-12-20T00:33:05;2.73;;;2.53;;
4867;SDS011;2448;48.086;10.862;2022-12-20T00:35:31;2.20;;;2.10;;
4867;SDS011;2448;48.086;10.862;2022-12-20T00:37:57;3.40;;;2.63;;
4867;SDS011;2448;48.086;10.862;2022-12-20T00:40:22;2.80;;;2.47;;
4867;SDS011;2448;48.086;10.862;2022-12-20T00:42:48;2.63;;;2.50;;
4867;SDS011;2448;48.086;10.862;2022-12-20T00:45:13;2.53;;;2.33;;
4867;SDS011;2448;48.086;10.862;2022-12-20T00:47:38;3.83;;;2.27;;
4867;SDS011;2448;48.086;10.862;2022-12-20T00:50:04;3.67;;;2.97;;
4867;SDS011;2448;48.086;10.862;2022-12-20T00:52:30;3.07;;;2.30;;
4867;SDS011;2448;48.086;10.862;2022-12-20T00:54:55;2.47;;;2.37;;
4867;SDS011;2448;48.086;10.862;2022-12-20T00:57:20;3.23;;;3.03;;
4867;SDS011;2448;48.086;10.862;2022-12-20T00:59:47;1.60;;;1.60;;
4867;SDS011;2448;48.086;10.862;2022-12-20T01:02:12;2.23;;;1.90;;
4867;SDS011;2448;48.086;10.862;2022-12-20T01:04:38;4.17;;;2.07;;
4867;SDS011;2448;48.086;10.862;2022-12-20T01:07:03;2.60;;;2.30;;
4867;SDS011;2448;48.086;10.862;2022-12-20T01:09:28;4.33;;;1.87;;
4867;SDS011;2448;48.086;10.862;2022-12-20T01:11:54;3.33;;;2.73;;
4867;SDS011;2448;48.086;10.862;2022-12-20T01:14:21;3.13;;;1.97;;
4867;SDS011;2448;48.086;10.862;2022-12-20T01:16:46;2.37;;;2.23;;
4867;SDS011;2448;48.086;10.862;2022-12-20T01:19:14;2.97;;;2.53;;
4867;SDS011;2448;48.086;10.862;2022-12-20T01:21:39;1.70;;;1.60;;
4867;SDS011;2448;48.086;10.862;2022-12-20T01:24:16;2.57;;;2.37;;
4867;SDS011;2448;48.086;10.862;2022-12-20T01:26:42;3.63;;;3.07;;
4867;SDS011;2448;48.086;10.862;2022-12-20T01:29:07;1.77;;;1.67;;
4867;SDS011;2448;48.086;10.862;2022-12-20T01:31:33;2.20;;;2.10;;
4867;SDS011;2448;48.086;10.862;2022-12-20T01:33:59;2.20;;;2.10;;
4867;SDS011;2448;48.086;10.862;2022-12-20T01:36:25;1.60;;;1.60;;
4867;SDS011;2448;48.086;10.862;2022-12-20T01:38:58;2.70;;;2.23;;
4867;SDS011;2448;48.086;10.862;2022-12-20T01:41:24;3.30;;;2.23;;
4867;SDS011;2448;48.086;10.862;2022-12-20T01:43:51;2.43;;;2.33;;
4867;SDS011;2448;48.086;10.862;2022-12-20T01:46:17;1.43;;;1.33;;
4867;SDS011;2448;48.086;10.862;2022-12-20T01:48:46;3.00;;;2.67;;
4867;SDS011;2448;48.086;10.862;2022-12-20T01:51:13;2.20;;;2.10;;
4867;SDS011;2448;48.086;10.862;2022-12-20T01:53:39;2.57;;;2.43;;
4867;SDS011;2448;48.086;10.862;2022-12-20T01:56:04;1.80;;;1.80;;
4867;SDS011;2448;48.086;10.862;2022-12-20T01:58:30;1.80;;;1.70;;
4867;SDS011;2448;48.086;10.862;2022-12-20T02:00:56;2.90;;;2.70;;
4867;SDS011;2448;48.086;10.862;2022-12-20T02:03:22;3.70;;;1.90;;
4867;SDS011;2448;48.086;10.862;2022-12-20T02:05:47;2.03;;;1.97;;
4867;SDS011;2448;48.086;10.862;2022-12-20T02:08:14;2.70;;;2.50;;
4867;SDS011;2448;48.086;10.862;2022-12-20T02:13:30;4.63;;;2.33;;
4867;SDS011;2448;48.086;10.862;2022-12-20T02:16:02;3.20;;;2.03;;
4867;SDS011;2448;48.086;10.862;2022-12-20T02:18:39;2.10;;;1.90;;
4867;SDS011;2448;48.086;10.862;2022-12-20T02:29:01;3.17;;;1.87;;
4867;SDS011;2448;48.086;10.862;2022-12-20T02:31:38;2.13;;;2.03;;
4867;SDS011;2448;48.086;10.862;2022-12-20T02:34:03;1.93;;;1.87;;
4867;SDS011;2448;48.086;10.862;2022-12-20T02:36:30;2.47;;;2.27;;
4867;SDS011;2448;48.086;10.862;2022-12-20T02:38:55;1.93;;;1.93;;
4867;SDS011;2448;48.086;10.862;2022-12-20T02:41:40;2.37;;;2.27;;
4867;SDS011;2448;48.086;10.862;2022-12-20T02:44:11;2.23;;;2.10;;
4867;SDS011;2448;48.086;10.862;2022-12-20T02:46:57;2.50;;;2.13;;
4867;SDS011;2448;48.086;10.862;2022-12-20T02:49:25;2.70;;;2.50;;
4867;SDS011;2448;48.086;10.862;2022-12-20T02:51:51;2.07;;;1.93;;
4867;SDS011;2448;48.086;10.862;2022-12-20T02:54:18;2.67;;;2.57;;
4867;SDS011;2448;48.086;10.862;2022-12-20T02:59:43;3.00;;;2.70;;
4867;SDS011;2448;48.086;10.862;2022-12-20T03:02:10;2.30;;;2.20;;
4867;SDS011;2448;48.086;10.862;2022-12-20T03:04:36;2.07;;;1.97;;
4867;SDS011;2448;48.086;10.862;2022-12-20T03:07:04;2.60;;;2.40;;
4867;SDS011;2448;48.086;10.862;2022-12-20T03:09:31;2.17;;;2.07;;
4867;SDS011;2448;48.086;10.862;2022-12-20T03:11:57;2.57;;;2.47;;
4867;SDS011;2448;48.086;10.862;2022-12-20T03:14:23;11.53;;;2.47;;
4867;SDS011;2448;48.086;10.862;2022-12-20T03:16:51;2.43;;;2.20;;
4867;SDS011;2448;48.086;10.862;2022-12-20T03:19:16;1.53;;;1.53;;
4867;SDS011;2448;48.086;10.862;2022-12-20T03:21:41;1.80;;;1.70;;
4867;SDS011;2448;48.086;10.862;2022-12-20T03:24:07;2.60;;;2.40;;
4867;SDS011;2448;48.086;10.862;2022-12-20T03:26:33;1.97;;;1.93;;
4867;SDS011;2448;48.086;10.862;2022-12-20T03:28:59;4.30;;;2.30;;
4867;SDS011;2448;48.086;10.862;2022-12-20T03:31:26;3.50;;;2.17;;
4867;SDS011;2448;48.086;10.862;2022-12-20T03:33:53;2.30;;;2.20;;
4867;SDS011;2448;48.086;10.862;2022-12-20T03:36:18;2.63;;;2.47;;
4867;SDS011;2448;48.086;10.862;2022-12-20T03:38:49;1.70;;;1.70;;
4867;SDS011;2448;48.086;10.862;2022-12-20T03:41:15;2.43;;;2.33;;
4867;SDS011;2448;48.086;10.862;2022-12-20T03:43:40;2.00;;;1.90;;
4867;SDS011;2448;48.086;10.862;2022-12-20T03:46:06;1.43;;;1.33;;
4867;SDS011;2448;48.086;10.862;2022-12-20T03:48:36;1.87;;;1.77;;
4867;SDS011;2448;48.086;10.862;2022-12-20T03:51:02;2.70;;;2.17;;
4867;SDS011;2448;48.086;10.862;2022-12-20T03:53:28;3.20;;;1.53;;
4867;SDS011;2448;48.086;10.862;2022-12-20T03:55:53;1.93;;;1.83;;
4867;SDS011;2448;48.086;10.862;2022-12-20T03:58:19;1.67;;;1.50;;
4867;SDS011;2448;48.086;10.862;2022-12-20T04:00:44;2.00;;;1.90;;
4867;SDS011;2448;48.086;10.862;2022-12-20T04:03:39;1.87;;;1.77;;
4867;SDS011;2448;48.086;10.862;2022-12-20T04:06:04;7.20;;;1.60;;
4867;SDS011;2448;48.086;10.862;2022-12-20T04:08:30;3.43;;;1.70;;
4867;SDS011;2448;48.086;10.862;2022-12-20T04:10:56;3.17;;;2.00;;
4867;SDS011;2448;48.086;10.862;2022-12-20T04:13:47;1.90;;;1.80;;
4867;SDS011;2448;48.086;10.862;2022-12-20T04:16:15;2.37;;;2.17;;
4867;SDS011;2448;48.086;10.862;2022-12-20T04:18:41;2.30;;;2.07;;
4867;SDS011;2448;48.086;10.862;2022-12-20T04:21:06;3.67;;;2.20;;
4867;SDS011;2448;48.086;10.862;2022-12-20T04:23:36;1.50;;;1.50;;
4867;SDS011;2448;48.086;10.862;2022-12-20T04:26:03;2.00;;;1.90;;
4867;SDS011;2448;48.086;10.862;2022-12-20T04:28:30;1.80;;;1.70;;
4867;SDS011;2448;48.086;10.862;2022-12-20T04:30:56;1.90;;;1.80;;
4867;SDS011;2448;48.086;10.862;2022-12-20T04:33:25;0.90;;;0.90;;
4867;SDS011;2448;48.086;10.862;2022-12-20T04:35:50;2.50;;;2.30;;
4867;SDS011;2448;48.086;10.862;2022-12-20T04:38:16;1.60;;;1.50;;
4867;SDS011;2448;48.086;10.862;2022-12-20T04:40:43;2.00;;;1.90;;
4867;SDS011;2448;48.086;10.862;2022-12-20T04:43:09;1.87;;;1.77;;
4867;SDS011;2448;48.086;10.862;2022-12-20T04:45:34;2.40;;;2.20;;
4867;SDS011;2448;48.086;10.862;2022-12-20T04:48:00;2.23;;;2.03;;
4867;SDS011;2448;48.086;10.862;2022-12-20T04:50:33;2.27;;;2.07;;
4867;SDS011;2448;48.086;10.862;2022-12-20T04:52:59;5.30;;;2.73;;
4867;SDS011;2448;48.086;10.862;2022-12-20T04:55:43;1.90;;;1.77;;
4867;SDS011;2448;48.086;10.862;2022-12-20T04:58:08;3.10;;;2.10;;
4867;SDS011;2448;48.086;10.862;2022-12-20T05:00:37;1.60;;;1.60;;
4867;SDS011;2448;48.086;10.862;2022-12-20T05:03:14;1.83;;;1.73;;
4867;SDS011;2448;48.086;10.862;2022-12-20T05:05:40;2.40;;;1.30;;
4867;SDS011;2448;48.086;10.862;2022-12-20T05:08:05;1.67;;;1.60;;
4867;SDS011;2448;48.086;10.862;2022-12-20T05:10:31;1.50;;;1.50;;
4867;SDS011;2448;48.086;10.862;2022-12-20T05:12:59;2.10;;;2.00;;
4867;SDS011;2448;48.086;10.862;2022-12-20T05:15:32;1.80;;;1.70;;
4867;SDS011;2448;48.086;10.862;2022-12-20T05:17:58;1.60;;;1.60;;
4867;SDS011;2448;48.086;10.862;2022-12-20T05:20:27;2.00;;;1.57;;
4867;SDS011;2448;48.086;10.862;2022-12-20T05:22:53;2.17;;;1.70;;
4867;SDS011;2448;48.086;10.862;2022-12-20T05:25:38;1.97;;;1.87;;
4867;SDS011;2448;48.086;10.862;2022-12-20T05:28:24;1.87;;;1.50;;
4867;SDS011;2448;48.086;10.862;2022-12-20T05:30:50;1.50;;;1.40;;
4867;SDS011;2448;48.086;10.862;2022-12-20T05:33:15;1.50;;;1.50;;
4867;SDS011;2448;48.086;10.862;2022-12-20T05:35:42;1.70;;;1.63;;
4867;SDS011;2448;48.086;10.862;2022-12-20T05:38:10;1.07;;;1.07;;
4867;SDS011;2448;48.086;10.862;2022-12-20T05:40:36;1.47;;;1.37;;
4867;SDS011;2448;48.086;10.862;2022-12-20T05:43:02;1.40;;;1.40;;
4867;SDS011;2448;48.086;10.862;2022-12-20T05:45:35;1.60;;;1.50;;
4867;SDS011;2448;48.086;10.862;2022-12-20T05:48:06;1.33;;;1.33;;
4867;SDS011;2448;48.086;10.862;2022-12-20T05:50:33;1.70;;;1.70;;
4867;SDS011;2448;48.086;10.862;2022-12-20T05:53:35;1.30;;;1.30;;
4867;SDS011;2448;48.086;10.862;2022-12-20T05:56:03;1.60;;;1.50;;
4867;SDS011;2448;48.086;10.862;2022-12-20T05:58:32;1.80;;;1.70;;
4867;SDS011;2448;48.086;10.862;2022-12-20T06:01:00;2.13;;;1.93;;
4867;SDS011;2448;48.086;10.862;2022-12-20T06:03:27;1.70;;;1.33;;
4867;SDS011;2448;48.086;10.862;2022-12-20T06:05:53;1.30;;;1.30;;
4867;SDS011;2448;48.086;10.862;2022-12-20T06:08:28;1.20;;;1.20;;
4867;SDS011;2448;48.086;10.862;2022-12-20T06:10:54;1.57;;;1.47;;
4867;SDS011;2448;48.086;10.862;2022-12-20T06:13:20;1.53;;;1.50;;
4867;SDS011;2448;48.086;10.862;2022-12-20T06:15:48;2.33;;;1.33;;
4867;SDS011;2448;48.086;10.862;2022-12-20T06:18:14;1.87;;;1.73;;
4867;SDS011;2448;48.086;10.862;2022-12-20T06:20:39;1.57;;;1.47;;
4867;SDS011;2448;48.086;10.862;2022-12-20T06:23:06;1.73;;;1.63;;
4867;SDS011;2448;48.086;10.862;2022-12-20T06:25:38;2.57;;;1.80;;
4867;SDS011;2448;48.086;10.862;2022-12-20T06:28:04;1.87;;;1.77;;
4867;SDS011;2448;48.086;10.862;2022-12-20T06:30:32;1.77;;;1.63;;
4867;SDS011;2448;48.086;10.862;2022-12-20T06:33:05;15.20;;;1.60;;
4867;SDS011;2448;48.086;10.862;2022-12-20T06:35:31;1.77;;;1.60;;
4867;SDS011;2448;48.086;10.862;2022-12-20T06:37:57;2.30;;;2.00;;
4867;SDS011;2448;48.086;10.862;2022-12-20T06:40:22;1.60;;;1.50;;
4867;SDS011;2448;48.086;10.862;2022-12-20T06:42:48;1.97;;;1.87;;
4867;SDS011;2448;48.086;10.862;2022-12-20T06:45:16;2.43;;;2.23;;
4867;SDS011;2448;48.086;10.862;2022-12-20T06:47:41;1.30;;;1.30;;
4867;SDS011;2448;48.086;10.862;2022-12-20T06:50:07;2.03;;;1.93;;
4867;SDS011;2448;48.086;10.862;2022-12-20T06:52:32;2.33;;;1.53;;
4867;SDS011;2448;48.086;10.862;2022-12-20T06:54:57;1.87;;;1.80;;
4867;SDS011;2448;48.086;10.862;2022-12-20T06:57:23;1.03;;;1.03;;
4867;SDS011;2448;48.086;10.862;2022-12-20T06:59:49;1.30;;;1.30;;
4867;SDS011;2448;48.086;10.862;2022-12-20T07:02:15;4.30;;;2.00;;
4867;SDS011;2448;48.086;10.862;2022-12-20T07:04:40;1.73;;;1.73;;
4867;SDS011;2448;48.086;10.862;2022-12-20T07:07:06;2.20;;;2.10;;
4867;SDS011;2448;48.086;10.862;2022-12-20T07:09:32;2.17;;;1.90;;
4867;SDS011;2448;48.086;10.862;2022-12-20T07:11:57;2.20;;;1.87;;
4867;SDS011;2448;48.086;10.862;2022-12-20T07:14:23;2.20;;;1.67;;
4867;SDS011;2448;48.086;10.862;2022-12-20T07:16:48;2.00;;;1.90;;
4867;SDS011;2448;48.086;10.862;2022-12-20T07:19:14;2.43;;;2.03;;
4867;SDS011;2448;48.086;10.862;2022-12-20T07:21:40;2.60;;;2.40;;
4867;SDS011;2448;48.086;10.862;2022-12-20T07:24:05;2.20;;;1.90;;
4867;SDS011;2448;48.086;10.862;2022-12-20T07:26:31;7.23;;;2.33;;
4867;SDS011;2448;48.086;10.862;2022-12-20T07:28:57;1.73;;;1.70;;
4867;SDS011;2448;48.086;10.862;2022-12-20T07:31:22;3.00;;;2.17;;
4867;SDS011;2448;48.086;10.862;2022-12-20T07:33:47;1.77;;;1.63;;
4867;SDS011;2448;48.086;10.862;2022-12-20T07:36:13;2.00;;;2.00;;
4867;SDS011;2448;48.086;10.862;2022-12-20T07:38:40;2.30;;;2.10;;
4867;SDS011;2448;48.086;10.862;2022-12-20T07:41:12;2.63;;;2.43;;
4867;SDS011;2448;48.086;10.862;2022-12-20T07:43:38;1.83;;;1.73;;
4867;SDS011;2448;48.086;10.862;2022-12-20T07:46:04;3.37;;;2.50;;
4867;SDS011;2448;48.086;10.862;2022-12-20T07:48:30;2.23;;;2.10;;
4867;SDS011;2448;48.086;10.862;2022-12-20T07:51:00;5.53;;;2.13;;
4867;SDS011;2448;48.086;10.862;2022-12-20T07:53:26;3.40;;;2.03;;
4867;SDS011;2448;48.086;10.862;2022-12-20T07:55:52;1.53;;;1.53;;
4867;SDS011;2448;48.086;10.862;2022-12-20T07:58:19;2.30;;;2.10;;
4867;SDS011;2448;48.086;10.862;2022-12-20T08:00:45;1.57;;;1.47;;
4867;SDS011;2448;48.086;10.862;2022-12-20T08:03:15;2.23;;;2.00;;
4867;SDS011;2448;48.086;10.862;2022-12-20T08:05:43;5.90;;;2.30;;
4867;SDS011;2448;48.086;10.862;2022-12-20T08:08:10;3.80;;;1.93;;
4867;SDS011;2448;48.086;10.862;2022-12-20T08:10:36;4.00;;;2.13;;
4867;SDS011;2448;48.086;10.862;2022-12-20T08:13:03;1.70;;;1.60;;
4867;SDS011;2448;48.086;10.862;2022-12-20T08:15:28;5.03;;;1.77;;
4867;SDS011;2448;48.086;10.862;2022-12-20T08:17:54;1.83;;;1.73;;
4867;SDS011;2448;48.086;10.862;2022-12-20T08:20:19;3.03;;;2.13;;
4867;SDS011;2448;48.086;10.862;2022-12-20T08:22:45;5.30;;;2.37;;
4867;SDS011;2448;48.086;10.862;2022-12-20T08:25:10;2.30;;;1.77;;
4867;SDS011;2448;48.086;10.862;2022-12-20T08:27:36;2.30;;;2.20;;
4867;SDS011;2448;48.086;10.862;2022-12-20T08:30:01;2.20;;;2.00;;
4867;SDS011;2448;48.086;10.862;2022-12-20T08:32:27;4.70;;;2.57;;
4867;SDS011;2448;48.086;10.862;2022-12-20T08:34:53;2.50;;;2.00;;
4867;SDS011;2448;48.086;10.862;2022-12-20T08:37:19;5.20;;;2.67;;
4867;SDS011;2448;48.086;10.862;2022-12-20T08:39:44;5.57;;;3.17;;
4867;SDS011;2448;48.086;10.862;2022-12-20T08:42:10;3.57;;;2.40;;
4867;SDS011;2448;48.086;10.862;2022-12-20T08:44:35;2.60;;;2.40;;
4867;SDS011;2448;48.086;10.862;2022-12-20T08:47:01;3.90;;;2.30;;
4867;SDS011;2448;48.086;10.862;2022-12-20T08:49:26;3.90;;;3.03;;
4867;SDS011;2448;48.086;10.862;2022-12-20T08:51:51;2.80;;;2.60;;
4867;SDS011;2448;48.086;10.862;2022-12-20T08:54:17;8.00;;;3.23;;
4867;SDS011;2448;48.086;10.862;2022-12-20T08:56:42;2.90;;;2.67;;
4867;SDS011;2448;48.086;10.862;2022-12-20T08:59:07;4.27;;;2.50;;
4867;SDS011;2448;48.086;10.862;2022-12-20T09:01:33;2.40;;;2.30;;
4867;SDS011;2448;48.086;10.862;2022-12-20T09:03:58;2.73;;;2.47;;
4867;SDS011;2448;48.086;10.862;2022-12-20T09:06:24;3.90;;;3.13;;
4867;SDS011;2448;48.086;10.862;2022-12-20T09:08:49;2.83;;;2.63;;
4867;SDS011;2448;48.086;10.862;2022-12-20T09:11:16;7.07;;;3.13;;
4867;SDS011;2448;48.086;10.862;2022-12-20T09:13:43;3.30;;;3.00;;
4867;SDS011;2448;48.086;10.862;2022-12-20T09:16:08;3.40;;;2.87;;
4867;SDS011;2448;48.086;10.862;2022-12-20T09:18:34;2.60;;;2.40;;
4867;SDS011;2448;48.086;10.862;2022-12-20T09:21:03;3.70;;;2.97;;
4867;SDS011;2448;48.086;10.862;2022-12-20T09:23:29;2.37;;;2.20;;
4867;SDS011;2448;48.086;10.862;2022-12-20T09:25:55;2.43;;;2.23;;
4867;SDS011;2448;48.086;10.862;2022-12-20T09:28:25;7.03;;;3.07;;
4867;SDS011;2448;48.086;10.862;2022-12-20T09:30:50;3.27;;;2.97;;
4867;SDS011;2448;48.086;10.862;2022-12-20T09:33:15;2.77;;;2.57;;
4867;SDS011;2448;48.086;10.862;2022-12-20T09:35:44;3.40;;;3.10;;
4867;SDS011;2448;48.086;10.862;2022-12-20T09:38:10;3.90;;;3.00;;
4867;SDS011;2448;48.086;10.862;2022-12-20T09:40:35;4.27;;;2.77;;
4867;SDS011;2448;48.086;10.862;2022-12-20T09:43:03;6.67;;;2.90;;
4867;SDS011;2448;48.086;10.862;2022-12-20T09:45:28;2.27;;;2.07;;
4867;SDS011;2448;48.086;10.862;2022-12-20T09:47:55;2.70;;;2.47;;
4867;SDS011;2448;48.086;10.862;2022-12-20T09:50:27;3.77;;;2.53;;
4867;SDS011;2448;48.086;10.862;2022-12-20T09:53:03;3.53;;;2.90;;
4867;SDS011;2448;48.086;10.862;2022-12-20T09:55:42;7.60;;;2.90;;
4867;SDS011;2448;48.086;10.862;2022-12-20T10:00:47;3.80;;;2.50;;
4867;SDS011;2448;48.086;10.862;2022-12-20T10:03:21;3.20;;;2.90;;
4867;SDS011;2448;48.086;10.862;2022-12-20T10:11:02;6.67;;;2.80;;
4867;SDS011;2448;48.086;10.862;2022-12-20T10:18:49;3.63;;;2.30;;
4867;SDS011;2448;48.086;10.862;2022-12-20T10:23:59;3.60;;;2.67;;
4867;SDS011;2448;48.086;10.862;2022-12-20T10:26:26;14.37;;;2.90;;
4867;SDS011;2448;48.086;10.862;2022-12-20T10:28:51;2.50;;;2.30;;
4867;SDS011;2448;48.086;10.862;2022-12-20T10:31:17;9.07;;;2.80;;
4867;SDS011;2448;48.086;10.862;2022-12-20T10:33:42;4.87;;;3.00;;
4867;SDS011;2448;48.086;10.862;2022-12-20T10:36:19;2.30;;;2.10;;
4867;SDS011;2448;48.086;10.862;2022-12-20T10:38:45;5.13;;;3.80;;
4867;SDS011;2448;48.086;10.862;2022-12-20T10:41:45;4.73;;;2.77;;
4867;SDS011;2448;48.086;10.862;2022-12-20T10:46:35;9.30;;;2.60;;
4867;SDS011;2448;48.086;10.862;2022-12-20T10:49:19;5.60;;;3.13;;
4867;SDS011;2448;48.086;10.862;2022-12-20T10:51:51;4.70;;;2.60;;
4867;SDS011;2448;48.086;10.862;2022-12-20T10:54:22;4.10;;;2.57;;
4867;SDS011;2448;48.086;10.862;2022-12-20T10:56:58;3.17;;;2.93;;
4867;SDS011;2448;48.086;10.862;2022-12-20T10:59:36;3.40;;;3.10;;
4867;SDS011;2448;48.086;10.862;2022-12-20T11:02:15;4.80;;;3.03;;
4867;SDS011;2448;48.086;10.862;2022-12-20T11:04:55;6.47;;;2.80;;
4867;SDS011;2448;48.086;10.862;2022-12-20T11:07:23;3.40;;;2.90;;
4867;SDS011;2448;48.086;10.862;2022-12-20T11:09:55;3.80;;;3.20;;
4867;SDS011;2448;48.086;10.862;2022-12-20T11:12:21;7.33;;;3.80;;
4867;SDS011;2448;48.086;10.862;2022-12-20T11:14:46;3.70;;;3.30;;
4867;SDS011;2448;48.086;10.862;2022-12-20T11:24:49;6.20;;;3.63;;
4867;SDS011;2448;48.086;10.862;2022-12-20T11:45:23;3.67;;;3.37;;
4867;SDS011;2448;48.086;10.862;2022-12-20T11:53:03;5.07;;;3.90;;
4867;SDS011;2448;48.086;10.862;2022-12-20T11:55:30;4.33;;;3.90;;
4867;SDS011;2448;48.086;10.862;2022-12-20T12:00:22;8.30;;;4.13;;
4867;SDS011;2448;48.086;10.862;2022-12-20T12:02:50;4.53;;;4.00;;
4867;SDS011;2448;48.086;10.862;2022-12-20T12:05:19;6.70;;;3.70;;
4867;SDS011;2448;48.086;10.862;2022-12-20T12:07:46;6.13;;;4.17;;
4867;SDS011;2448;48.086;10.862;2022-12-20T12:17:37;5.10;;;3.77;;
4867;SDS011;2448;48.086;10.862;2022-12-20T12:20:16;4.07;;;3.60;;
4867;SDS011;2448;48.086;10.862;2022-12-20T12:22:43;4.37;;;3.87;;
4867;SDS011;2448;48.086;10.862;2022-12-20T12:25:11;6.63;;;4.40;;
4867;SDS011;2448;48.086;10.862;2022-12-20T12:27:38;5.00;;;3.77;;
4867;SDS011;2448;48.086;10.862;2022-12-20T12:30:04;4.70;;;3.77;;
4867;SDS011;2448;48.086;10.862;2022-12-20T12:32:37;3.83;;;3.27;;
4867;SDS011;2448;48.086;10.862;2022-12-20T12:45:04;5.13;;;3.77;;
4867;SDS011;2448;48.086;10.862;2022-12-20T12:47:39;4.20;;;3.80;;
4867;SDS011;2448;48.086;10.862;2022-12-20T12:50:43;5.03;;;4.10;;
4867;SDS011;2448;48.086;10.862;2022-12-20T12:55:46;5.03;;;3.47;;
4867;SDS011;2448;48.086;10.862;2022-12-20T12:58:33;8.60;;;4.33;;
4867;SDS011;2448;48.086;10.862;2022-12-20T13:00:58;10.63;;;4.57;;
4867;SDS011;2448;48.086;10.862;2022-12-20T13:06:22;5.50;;;4.80;;
4867;SDS011;2448;48.086;10.862;2022-12-20T13:16:44;8.53;;;4.47;;
4867;SDS011;2448;48.086;10.862;2022-12-20T13:19:33;5.23;;;4.03;;
4867;SDS011;2448;48.086;10.862;2022-12-20T13:21:55;10.13;;;3.60;;
4867;SDS011;2448;48.086;10.862;2022-12-20T13:27:16;6.30;;;4.90;;
4867;SDS011;2448;48.086;10.862;2022-12-20T13:35:00;6.43;;;4.20;;
4867;SDS011;2448;48.086;10.862;2022-12-20T13:40:17;5.00;;;3.53;;
4867;SDS011;2448;48.086;10.862;2022-12-20T13:42:43;4.57;;;3.70;;
4867;SDS011;2448;48.086;10.862;2022-12-20T13:45:10;5.90;;;3.80;;
4867;SDS011;2448;48.086;10.862;2022-12-20T13:47:38;4.40;;;3.40;;
4867;SDS011;2448;48.086;10.862;2022-12-20T13:50:27;7.33;;;3.83;;
4867;SDS011;2448;48.086;10.862;2022-12-20T13:52:50;6.00;;;4.47;;
4867;SDS011;2448;48.086;10.862;2022-12-20T13:55:24;7.90;;;4.33;;
4867;SDS011;2448;48.086;10.862;2022-12-20T13:57:49;5.67;;;3.63;;
4867;SDS011;2448;48.086;10.862;2022-12-20T14:00:16;9.77;;;3.90;;
4867;SDS011;2448;48.086;10.862;2022-12-20T14:02:42;6.43;;;3.90;;
4867;SDS011;2448;48.086;10.862;2022-12-20T14:05:15;10.30;;;5.03;;
4867;SDS011;2448;48.086;10.862;2022-12-20T14:07:42;8.10;;;4.03;;
4867;SDS011;2448;48.086;10.862;2022-12-20T14:10:27;7.13;;;3.83;;
4867;SDS011;2448;48.086;10.862;2022-12-20T14:12:53;6.90;;;5.10;;
4867;SDS011;2448;48.086;10.862;2022-12-20T14:15:19;5.80;;;4.13;;
4867;SDS011;2448;48.086;10.862;2022-12-20T14:17:45;4.57;;;4.13;;
4867;SDS011;2448;48.086;10.862;2022-12-20T14:22:36;7.17;;;5.10;;
4867;SDS011;2448;48.086;10.862;2022-12-20T14:25:02;12.00;;;4.00;;
4867;SDS011;2448;48.086;10.862;2022-12-20T14:27:31;8.70;;;4.83;;
4867;SDS011;2448;48.086;10.862;2022-12-20T14:29:57;7.90;;;4.30;;
4867;SDS011;2448;48.086;10.862;2022-12-20T14:32:22;4.80;;;4.20;;
4867;SDS011;2448;48.086;10.862;2022-12-20T14:34:48;6.30;;;5.10;;
4867;SDS011;2448;48.086;10.862;2022-12-20T14:37:23;7.50;;;5.43;;
4867;SDS011;2448;48.086;10.862;2022-12-20T14:39:54;7.00;;;4.73;;
4867;SDS011;2448;48.086;10.862;2022-12-20T14:42:20;8.73;;;5.13;;
4867;SDS011;2448;48.086;10.862;2022-12-20T14:44:45;6.77;;;5.50;;
4867;SDS011;2448;48.086;10.862;2022-12-20T14:49:36;7.70;;;4.60;;
4867;SDS011;2448;48.086;10.862;2022-12-20T14:52:23;9.50;;;5.70;;
4867;SDS011;2448;48.086;10.862;2022-12-20T14:57:24;13.67;;;5.07;;
4867;SDS011;2448;48.086;10.862;2022-12-20T14:59:58;6.63;;;4.50;;
4867;SDS011;2448;48.086;10.862;2022-12-20T15:02:35;6.67;;;5.10;;
4867;SDS011;2448;48.086;10.862;2022-12-20T15:05:06;11.93;;;4.67;;
4867;SDS011;2448;48.086;10.862;2022-12-20T15:07:31;12.27;;;6.73;;
4867;SDS011;2448;48.086;10.862;2022-12-20T15:09:57;7.00;;;5.17;;
4867;SDS011;2448;48.086;10.862;2022-12-20T15:12:23;10.37;;;5.30;;
4867;SDS011;2448;48.086;10.862;2022-12-20T15:14:48;11.37;;;5.60;;
4867;SDS011;2448;48.086;10.862;2022-12-20T15:17:14;10.57;;;4.97;;
4867;SDS011;2448;48.086;10.862;2022-12-20T15:19:40;10.27;;;5.40;;
4867;SDS011;2448;48.086;10.862;2022-12-20T15:22:05;11.10;;;6.17;;
4867;SDS011;2448;48.086;10.862;2022-12-20T15:24:37;13.60;;;5.47;;
4867;SDS011;2448;48.086;10.862;2022-12-20T15:27:02;5.83;;;4.63;;
4867;SDS011;2448;48.086;10.862;2022-12-20T15:29:28;10.40;;;5.77;;
4867;SDS011;2448;48.086;10.862;2022-12-20T15:32:03;8.07;;;5.10;;
4867;SDS011;2448;48.086;10.862;2022-12-20T15:36:55;8.73;;;5.87;;
4867;SDS011;2448;48.086;10.862;2022-12-20T15:39:24;9.83;;;6.30;;
4867;SDS011;2448;48.086;10.862;2022-12-20T15:41:49;5.70;;;4.57;;
4867;SDS011;2448;48.086;10.862;2022-12-20T15:44:24;10.17;;;5.70;;
4867;SDS011;2448;48.086;10.862;2022-12-20T15:46:50;9.17;;;5.43;;
4867;SDS011;2448;48.086;10.862;2022-12-20T15:49:17;12.37;;;6.93;;
4867;SDS011;2448;48.086;10.862;2022-12-20T15:51:43;7.00;;;5.43;;
4867;SDS011;2448;48.086;10.862;2022-12-20T15:57:04;41.13;;;5.53;;
4867;SDS011;2448;48.086;10.862;2022-12-20T15:59:31;8.30;;;5.57;;
4867;SDS011;2448;48.086;10.862;2022-12-20T16:01:57;38.40;;;5.60;;
4867;SDS011;2448;48.086;10.862;2022-12-20T16:04:22;10.87;;;5.47;;
4867;SDS011;2448;48.086;10.862;2022-12-20T16:06:49;13.53;;;6.93;;
4867;SDS011;2448;48.086;10.862;2022-12-20T16:09:17;9.87;;;4.73;;
4867;SDS011;2448;48.086;10.862;2022-12-20T16:11:43;12.30;;;5.23;;
4867;SDS011;2448;48.086;10.862;2022-12-20T16:14:12;9.47;;;6.37;;
4867;SDS011;2448;48.086;10.862;2022-12-20T16:16:39;6.20;;;4.73;;
4867;SDS011;2448;48.086;10.862;2022-12-20T16:19:04;14.13;;;5.97;;
4867;SDS011;2448;48.086;10.862;2022-12-20T16:21:31;6.93;;;5.50;;
4867;SDS011;2448;48.086;10.862;2022-12-20T16:23:57;7.60;;;5.83;;
4867;SDS011;2448;48.086;10.862;2022-12-20T16:26:23;11.20;;;7.60;;
4867;SDS011;2448;48.086;10.862;2022-12-20T16:28:49;14.80;;;5.80;;
4867;SDS011;2448;48.086;10.862;2022-12-20T16:31:25;12.20;;;6.70;;
4867;SDS011;2448;48.086;10.862;2022-12-20T16:33:52;10.43;;;7.47;;
4867;SDS011;2448;48.086;10.862;2022-12-20T16:36:17;9.20;;;6.33;;
4867;SDS011;2448;48.086;10.862;2022-12-20T16:38:43;19.23;;;6.43;;
4867;SDS011;2448;48.086;10.862;2022-12-20T16:43:37;7.63;;;5.17;;
4867;SDS011;2448;48.086;10.862;2022-12-20T16:46:03;12.20;;;7.60;;
4867;SDS011;2448;48.086;10.862;2022-12-20T16:48:28;16.90;;;7.53;;
4867;SDS011;2448;48.086;10.862;2022-12-20T16:50:54;20.47;;;8.30;;
4867;SDS011;2448;48.086;10.862;2022-12-20T16:53:19;14.43;;;7.63;;
4867;SDS011;2448;48.086;10.862;2022-12-20T16:55:44;14.97;;;7.17;;
4867;SDS011;2448;48.086;10.862;2022-12-20T16:58:10;16.53;;;8.37;;
4867;SDS011;2448;48.086;10.862;2022-12-20T17:00:36;7.13;;;6.00;;
4867;SDS011;2448;48.086;10.862;2022-12-20T17:03:02;11.30;;;6.00;;
4867;SDS011;2448;48.086;10.862;2022-12-20T17:05:29;10.80;;;5.17;;
4867;SDS011;2448;48.086;10.862;2022-12-20T17:07:54;4.63;;;3.73;;